Time;durP1;ratioP1;P1;durP2;ratioP2;P2;SDS_P1;SDS_P2;PMS_P1;PMS_P2;Temp;Humidity;BMP_temperature;BMP_pressure;BME280_temperature;BME280_humidity;BME280_pressure;Samples;Min_cycle;Max_cycle;Signal;HPM_P1;HPM_P2
2022/05/04 00:00:10;;;;;;;;;;;9.00;99.90;;;;;;5075664;28;19927;-76
2022/05/04 00:02:36;;;;;;;;;;;9.00;99.90;;;;;;5076206;28;19921;-76
2022/05/04 00:05:03;;;;;;;;;;;9.00;99.90;;;;;;5075679;28;20007;-76
2022/05/04 00:07:28;;;;;;;;;;;9.00;99.90;;;;;;5076284;28;19920;-77
2022/05/04 00:09:55;;;;;;;;;;;9.00;99.90;;;;;;5074847;28;19927;-77
2022/05/04 00:12:21;;;;;;;;;;;9.00;99.90;;;;;;5074072;28;19947;-76
2022/05/04 00:14:47;;;;;;;;;;;8.90;99.90;;;;;;5074877;28;20005;-76
2022/05/04 00:17:12;;;;;;;;;;;8.90;99.90;;;;;;5072976;28;20427;-77
2022/05/04 00:19:38;;;;;;;;;;;8.90;99.90;;;;;;5076175;28;19921;-76
2022/05/04 00:22:03;;;;;;;;;;;8.90;99.90;;;;;;5075720;28;19924;-77
2022/05/04 00:24:29;;;;;;;;;;;8.90;99.90;;;;;;5075350;28;19928;-76
2022/05/04 00:26:54;;;;;;;;;;;8.80;99.90;;;;;;5074970;28;19975;-77
2022/05/04 00:29:20;;;;;;;;;;;8.80;99.90;;;;;;5073933;28;19921;-76
2022/05/04 00:31:45;;;;;;;;;;;8.80;99.90;;;;;;5074258;28;20025;-76
2022/05/04 00:34:11;;;;;;;;;;;8.70;99.90;;;;;;5073771;28;19921;-77
2022/05/04 00:36:36;;;;;;;;;;;8.80;99.90;;;;;;5074328;28;19927;-76
2022/05/04 00:39:02;;;;;;;;;;;8.80;99.90;;;;;;5073214;28;20378;-77
2022/05/04 00:41:27;;;;;;;;;;;8.80;99.90;;;;;;5074601;28;19963;-77
2022/05/04 00:43:53;;;;;;;;;;;8.80;99.90;;;;;;5074148;28;19974;-77
2022/05/04 00:46:19;;;;;;;;;;;8.80;99.90;;;;;;5073440;28;19974;-77
2022/05/04 00:48:45;;;;;;;;;;;8.80;99.90;;;;;;5073596;28;20291;-77
2022/05/04 00:51:10;;;;;;;;;;;8.80;99.90;;;;;;5074121;28;19990;-77
2022/05/04 00:53:37;;;;;;;;;;;8.80;99.90;;;;;;5074902;28;19920;-76
2022/05/04 00:56:02;;;;;;;;;;;8.80;99.90;;;;;;5074643;28;20394;-76
2022/05/04 01:01:14;;;;;;;;;;;8.80;99.90;;;;;;5072845;28;19920;-77
2022/05/04 01:03:39;;;;;;;;;;;8.80;99.90;;;;;;5074291;28;19920;-77
2022/05/04 01:06:14;;;;;;;;;;;8.80;99.90;;;;;;5073256;28;19916;-77
2022/05/04 01:08:40;;;;;;;;;;;8.80;99.90;;;;;;5073400;28;19928;-77
2022/05/04 01:11:08;;;;;;;;;;;8.80;99.90;;;;;;5073380;28;19917;-77
2022/05/04 01:13:34;;;;;;;;;;;8.80;99.90;;;;;;5073249;28;20002;-76
2022/05/04 01:15:59;;;;;;;;;;;8.80;99.90;;;;;;5073352;28;19920;-76
2022/05/04 01:18:25;;;;;;;;;;;8.80;99.90;;;;;;5074926;28;19920;-76
2022/05/04 01:20:50;;;;;;;;;;;8.80;99.90;;;;;;5074044;28;19931;-76
2022/05/04 01:23:16;;;;;;;;;;;8.80;99.90;;;;;;5073494;28;19920;-76
2022/05/04 01:25:41;;;;;;;;;;;8.80;99.90;;;;;;5073763;28;20352;-76
2022/05/04 01:28:10;;;;;;;;;;;8.80;99.90;;;;;;5073672;28;20015;-77
2022/05/04 01:30:36;;;;;;;;;;;8.80;99.90;;;;;;5073335;28;19920;-77
2022/05/04 01:33:02;;;;;;;;;;;8.80;99.90;;;;;;5072622;28;19920;-77
2022/05/04 01:35:27;;;;;;;;;;;8.80;99.90;;;;;;5072667;28;20260;-77
2022/05/04 01:37:53;;;;;;;;;;;8.80;99.90;;;;;;5074761;28;19916;-77
2022/05/04 01:40:19;;;;;;;;;;;8.70;99.90;;;;;;5074296;28;19970;-76
2022/05/04 01:42:44;;;;;;;;;;;8.70;99.90;;;;;;5072425;28;19921;-76
2022/05/04 01:45:10;;;;;;;;;;;8.70;99.90;;;;;;5072835;28;20326;-76
2022/05/04 01:47:36;;;;;;;;;;;8.70;99.90;;;;;;5073287;28;19966;-76
2022/05/04 01:50:03;;;;;;;;;;;8.70;99.90;;;;;;5072211;28;20363;-76
2022/05/04 01:52:29;;;;;;;;;;;8.70;99.90;;;;;;5072875;28;19946;-76
2022/05/04 01:54:55;;;;;;;;;;;8.70;99.90;;;;;;5073263;28;19966;-76
2022/05/04 01:57:21;;;;;;;;;;;8.70;99.90;;;;;;5073282;28;19963;-77
2022/05/04 01:59:46;;;;;;;;;;;8.70;99.90;;;;;;5072877;28;20264;-77
2022/05/04 02:02:12;;;;;;;;;;;8.70;99.90;;;;;;5073715;28;19927;-77
2022/05/04 02:04:37;;;;;;;;;;;8.60;99.90;;;;;;5073444;28;19916;-76
2022/05/04 02:07:03;;;;;;;;;;;8.60;99.90;;;;;;5072916;28;19969;-76
2022/05/04 02:09:29;;;;;;;;;;;8.70;99.90;;;;;;5074026;28;19966;-76
2022/05/04 02:11:55;;;;;;;;;;;8.70;99.90;;;;;;5073484;28;19917;-76
2022/05/04 02:14:26;;;;;;;;;;;8.70;99.90;;;;;;5073110;28;19927;-76
2022/05/04 02:16:55;;;;;;;;;;;8.60;99.90;;;;;;5071833;28;20010;-77
2022/05/04 02:19:20;;;;;;;;;;;8.60;99.90;;;;;;5072021;28;19928;-76
2022/05/04 02:21:46;;;;;;;;;;;8.60;99.90;;;;;;5072170;28;20302;-76
2022/05/04 02:24:11;;;;;;;;;;;8.60;99.90;;;;;;5072636;28;19920;-76
2022/05/04 02:26:37;;;;;;;;;;;8.60;99.90;;;;;;5072225;28;19920;-76
2022/05/04 02:29:02;;;;;;;;;;;8.50;99.90;;;;;;5072242;28;19920;-76
2022/05/04 02:31:28;;;;;;;;;;;8.60;99.90;;;;;;5071280;28;19927;-76
2022/05/04 02:33:53;;;;;;;;;;;8.50;99.90;;;;;;5073533;28;19931;-76
2022/05/04 02:39:03;;;;;;;;;;;8.40;99.90;;;;;;5071138;28;19975;-76
2022/05/04 02:41:28;;;;;;;;;;;8.40;99.90;;;;;;5072080;28;19967;-76
2022/05/04 02:43:57;;;;;;;;;;;8.80;99.90;;;;;;5073348;28;19959;-76
2022/05/04 02:46:24;;;;;;;;;;;8.50;99.90;;;;;;5071252;28;19974;-76
2022/05/04 02:48:52;;;;;;;;;;;8.50;99.90;;;;;;5071989;28;19920;-76
2022/05/04 02:51:18;;;;;;;;;;;8.50;99.90;;;;;;5071881;28;20282;-76
2022/05/04 02:53:43;;;;;;;;;;;8.50;99.90;;;;;;5071374;28;19925;-76
2022/05/04 02:56:10;;;;;;;;;;;8.50;99.90;;;;;;5073174;28;20413;-76
2022/05/04 02:58:36;;;;;;;;;;;8.50;99.90;;;;;;5072054;28;19920;-77
2022/05/04 03:03:53;;;;;;;;;;;8.40;99.90;;;;;;5072839;28;19920;-77
2022/05/04 03:06:18;;;;;;;;;;;8.40;99.90;;;;;;5072592;28;19924;-77
2022/05/04 03:08:44;;;;;;;;;;;8.50;99.90;;;;;;5072967;28;19994;-77
2022/05/04 03:13:54;;;;;;;;;;;8.50;99.90;;;;;;5072405;28;20477;-77
2022/05/04 03:16:19;;;;;;;;;;;8.40;99.90;;;;;;5071082;28;20015;-77
2022/05/04 03:18:45;;;;;;;;;;;8.40;99.90;;;;;;5071762;28;20029;-77
2022/05/04 03:21:10;;;;;;;;;;;8.40;99.90;;;;;;5070894;28;19931;-76
2022/05/04 03:23:39;;;;;;;;;;;8.40;99.90;;;;;;5072332;28;20023;-76
2022/05/04 03:26:07;;;;;;;;;;;8.40;99.90;;;;;;5072467;28;19921;-77
2022/05/04 03:28:33;;;;;;;;;;;8.50;99.90;;;;;;5069460;28;19920;-77
2022/05/04 03:30:58;;;;;;;;;;;8.50;99.90;;;;;;5070417;28;19966;-77
2022/05/04 03:33:24;;;;;;;;;;;8.40;99.90;;;;;;5072120;28;20031;-76
2022/05/04 03:35:49;;;;;;;;;;;8.40;99.90;;;;;;5083083;28;19927;-76
2022/05/04 03:38:15;;;;;;;;;;;8.40;99.90;;;;;;5080342;28;20030;-76
2022/05/04 03:40:40;;;;;;;;;;;8.40;99.90;;;;;;5081129;28;19920;-76
2022/05/04 03:43:06;;;;;;;;;;;8.40;99.90;;;;;;5082652;28;19971;-76
2022/05/04 03:45:32;;;;;;;;;;;8.40;99.90;;;;;;5083060;28;20006;-75
2022/05/04 03:47:58;;;;;;;;;;;8.40;99.90;;;;;;5071477;28;19927;-75
2022/05/04 03:50:23;;;;;;;;;;;8.40;99.90;;;;;;5070035;28;20007;-76
2022/05/04 03:52:49;;;;;;;;;;;8.40;99.90;;;;;;5077736;28;19924;-75
2022/05/04 03:55:14;;;;;;;;;;;8.40;99.90;;;;;;5077458;28;20378;-75
2022/05/04 03:57:40;;;;;;;;;;;8.40;99.90;;;;;;5071015;28;19916;-77
2022/05/04 04:00:06;;;;;;;;;;;8.40;99.90;;;;;;5079342;28;19920;-76
2022/05/04 04:02:31;;;;;;;;;;;8.40;99.90;;;;;;5079360;28;19928;-76
2022/05/04 04:04:57;;;;;;;;;;;8.40;99.90;;;;;;5079737;28;19921;-76
2022/05/04 04:07:22;;;;;;;;;;;8.40;99.90;;;;;;5080809;28;19920;-76
2022/05/04 04:09:48;;;;;;;;;;;8.40;99.90;;;;;;5070247;28;19924;-76
2022/05/04 04:12:13;;;;;;;;;;;8.40;99.90;;;;;;5071966;28;19974;-76
2022/05/04 04:14:39;;;;;;;;;;;8.40;99.90;;;;;;5071155;28;19973;-76
2022/05/04 04:17:04;;;;;;;;;;;8.40;99.90;;;;;;5090645;28;20010;-76
2022/05/04 04:19:30;;;;;;;;;;;8.40;99.90;;;;;;5079283;28;19975;-76
2022/05/04 04:21:55;;;;;;;;;;;8.40;99.90;;;;;;5071856;28;19924;-76
2022/05/04 04:24:21;;;;;;;;;;;8.40;99.90;;;;;;5073871;28;19921;-76
2022/05/04 04:26:47;;;;;;;;;;;8.40;99.90;;;;;;5074216;28;19920;-74
2022/05/04 04:29:12;;;;;;;;;;;8.40;99.90;;;;;;5075512;28;20272;-79
2022/05/04 04:31:38;;;;;;;;;;;8.50;99.90;;;;;;5073503;28;20029;-78
2022/05/04 04:34:04;;;;;;;;;;;8.40;99.90;;;;;;5074188;28;20295;-77
2022/05/04 04:36:30;;;;;;;;;;;8.40;99.90;;;;;;5074346;28;20371;-82
2022/05/04 04:38:55;;;;;;;;;;;8.40;99.90;;;;;;5075108;28;19932;-79
2022/05/04 04:41:21;;;;;;;;;;;8.40;99.90;;;;;;5074812;28;19921;-75
2022/05/04 04:43:47;;;;;;;;;;;8.40;99.90;;;;;;5067533;28;19921;-79
2022/05/04 04:46:12;;;;;;;;;;;8.40;99.90;;;;;;5054587;28;19924;-75
2022/05/04 04:48:38;;;;;;;;;;;8.50;99.90;;;;;;5056107;28;19921;-78
2022/05/04 04:51:06;;;;;;;;;;;8.50;99.90;;;;;;5057661;28;20364;-79
2022/05/04 04:53:31;;;;;;;;;;;8.50;99.90;;;;;;5063270;28;19966;-81
2022/05/04 04:55:57;;;;;;;;;;;8.50;99.90;;;;;;5078477;28;19920;-76
2022/05/04 04:58:23;;;;;;;;;;;8.60;99.90;;;;;;5074748;28;19920;-77
2022/05/04 05:00:48;;;;;;;;;;;8.60;99.90;;;;;;5074623;28;19967;-78
2022/05/04 05:03:16;;;;;;;;;;;8.60;99.90;;;;;;5074437;28;19920;-77
2022/05/04 05:05:43;;;;;;;;;;;8.70;99.90;;;;;;5074515;28;19927;-77
2022/05/04 05:08:09;;;;;;;;;;;8.70;99.90;;;;;;5073763;28;20555;-75
2022/05/04 05:10:35;;;;;;;;;;;8.70;99.90;;;;;;5075100;28;19924;-75
2022/05/04 05:13:00;;;;;;;;;;;8.80;99.90;;;;;;5074549;28;19920;-75
2022/05/04 05:18:10;;;;;;;;;;;8.80;99.90;;;;;;5073905;28;19931;-81
2022/05/04 05:20:35;;;;;;;;;;;10.00;99.90;;;;;;5073424;28;19920;-76
2022/05/04 05:23:02;;;;;;;;;;;8.90;99.90;;;;;;5074184;28;19923;-75
2022/05/04 05:25:29;;;;;;;;;;;8.90;99.90;;;;;;5074341;28;19928;-77
2022/05/04 05:27:55;;;;;;;;;;;9.00;99.90;;;;;;5073298;28;19920;-75
2022/05/04 05:30:20;;;;;;;;;;;9.00;99.90;;;;;;5073756;28;19987;-78
2022/05/04 05:32:47;;;;;;;;;;;9.00;99.90;;;;;;5073490;28;20371;-80
2022/05/04 05:35:13;;;;;;;;;;;9.00;99.90;;;;;;5072852;28;20016;-78
2022/05/04 05:37:38;;;;;;;;;;;9.00;99.90;;;;;;5074696;28;19926;-78
2022/05/04 05:40:04;;;;;;;;;;;9.10;99.90;;;;;;5072932;28;20379;-76
2022/05/04 05:42:30;;;;;;;;;;;9.20;99.90;;;;;;5072242;28;20363;-77
2022/05/04 05:44:55;;;;;;;;;;;9.10;99.90;;;;;;5073023;28;19930;-75
2022/05/04 05:47:21;;;;;;;;;;;9.20;99.90;;;;;;5074193;28;19926;-76
2022/05/04 05:49:46;;;;;;;;;;;9.20;99.90;;;;;;5055605;28;19924;-76
2022/05/04 05:52:12;;;;;;;;;;;9.20;99.90;;;;;;5073355;28;19965;-76
2022/05/04 05:54:37;;;;;;;;;;;9.30;99.90;;;;;;5072167;28;19920;-76
2022/05/04 05:57:03;;;;;;;;;;;9.40;99.90;;;;;;5071574;28;19927;-75
2022/05/04 05:59:29;;;;;;;;;;;9.40;99.90;;;;;;5073447;28;19920;-75
2022/05/04 06:01:55;;;;;;;;;;;9.50;99.90;;;;;;5071850;28;19993;-77
2022/05/04 06:04:20;;;;;;;;;;;9.60;99.90;;;;;;5073581;28;19920;-76
2022/05/04 06:06:46;;;;;;;;;;;9.60;99.90;;;;;;5072619;28;19921;-76
2022/05/04 06:09:11;;;;;;;;;;;9.70;99.90;;;;;;5071526;28;20014;-76
2022/05/04 06:11:37;;;;;;;;;;;9.80;99.90;;;;;;5072444;28;20368;-76
2022/05/04 06:14:02;;;;;;;;;;;9.90;99.90;;;;;;5071928;28;19927;-75
2022/05/04 06:16:28;;;;;;;;;;;9.90;99.90;;;;;;5072390;28;19928;-76
2022/05/04 06:18:53;;;;;;;;;;;10.00;99.90;;;;;;5073536;28;20439;-77
2022/05/04 06:21:19;;;;;;;;;;;10.00;99.90;;;;;;5072303;28;19920;-75
2022/05/04 06:23:44;;;;;;;;;;;10.10;99.90;;;;;;5073229;28;19924;-75
2022/05/04 06:26:10;;;;;;;;;;;10.10;99.90;;;;;;5072942;28;19920;-75
2022/05/04 06:28:36;;;;;;;;;;;10.10;99.90;;;;;;5073705;28;20293;-75
2022/05/04 06:36:29;;;;;;;;;;;10.30;99.90;;;;;;5073614;28;19955;-74
2022/05/04 06:38:55;;;;;;;;;;;10.30;99.90;;;;;;5072970;28;20267;-74
2022/05/04 06:41:20;;;;;;;;;;;10.50;99.90;;;;;;5073013;28;19925;-74
2022/05/04 06:43:46;;;;;;;;;;;10.60;99.90;;;;;;5072469;28;20373;-74
2022/05/04 06:46:15;;;;;;;;;;;10.70;99.90;;;;;;5070684;28;20371;-75
2022/05/04 06:48:41;;;;;;;;;;;10.80;99.90;;;;;;5072022;28;19927;-74
2022/05/04 06:51:06;;;;;;;;;;;10.80;99.90;;;;;;5072344;28;20461;-75
2022/05/04 06:53:33;;;;;;;;;;;10.90;99.90;;;;;;5072992;28;19920;-75
2022/05/04 06:55:58;;;;;;;;;;;11.90;99.90;;;;;;5072995;28;19920;-75
2022/05/04 06:58:24;;;;;;;;;;;11.00;98.70;;;;;;5071058;28;19931;-76
2022/05/04 07:00:49;;;;;;;;;;;11.00;99.10;;;;;;5071575;28;20371;-77
2022/05/04 07:03:15;;;;;;;;;;;11.10;99.90;;;;;;5071743;28;19920;-76
2022/05/04 07:05:41;;;;;;;;;;;11.20;99.60;;;;;;5072537;28;19920;-73
2022/05/04 07:08:06;;;;;;;;;;;11.20;99.30;;;;;;5072577;28;19967;-73
2022/05/04 07:10:32;;;;;;;;;;;11.30;99.30;;;;;;5071681;28;19921;-74
2022/05/04 07:12:57;;;;;;;;;;;11.30;99.40;;;;;;5071096;28;19924;-77
2022/05/04 07:15:23;;;;;;;;;;;11.30;99.10;;;;;;5071362;28;19920;-73
2022/05/04 07:17:48;;;;;;;;;;;11.30;99.00;;;;;;5071868;28;19920;-75
2022/05/04 07:20:14;;;;;;;;;;;11.30;98.90;;;;;;5070626;28;20418;-80
2022/05/04 07:22:40;;;;;;;;;;;11.30;99.00;;;;;;5071402;28;19924;-82
2022/05/04 07:25:05;;;;;;;;;;;11.50;98.90;;;;;;5072812;28;19924;-84
2022/05/04 07:27:31;;;;;;;;;;;11.50;98.40;;;;;;5070785;28;19920;-80
2022/05/04 07:29:56;;;;;;;;;;;11.60;98.50;;;;;;5071668;28;19923;-79
2022/05/04 07:32:22;;;;;;;;;;;11.70;98.60;;;;;;5072085;28;19990;-75
2022/05/04 07:34:47;;;;;;;;;;;11.80;98.20;;;;;;5070770;28;19920;-76
2022/05/04 07:37:13;;;;;;;;;;;11.90;98.70;;;;;;5070939;28;19920;-73
2022/05/04 07:42:27;;;;;;;;;;;11.90;97.80;;;;;;5071517;28;20371;-74
2022/05/04 07:45:19;;;;;;;;;;;11.90;98.10;;;;;;5072420;28;20368;-85
2022/05/04 07:47:44;;;;;;;;;;;12.00;98.10;;;;;;5066685;28;19925;-77
2022/05/04 07:50:11;;;;;;;;;;;12.00;98.00;;;;;;5069714;28;19928;-71
2022/05/04 07:52:37;;;;;;;;;;;12.00;97.40;;;;;;5070132;28;19927;-79
2022/05/04 07:55:03;;;;;;;;;;;12.00;97.90;;;;;;5068429;28;19921;-76
2022/05/04 07:57:28;;;;;;;;;;;12.00;97.90;;;;;;5072615;28;19971;-78
2022/05/04 08:05:24;;;;;;;;;;;12.30;97.60;;;;;;5074702;28;19921;-81
2022/05/04 08:07:50;;;;;;;;;;;12.30;96.10;;;;;;5074853;28;20006;-77
2022/05/04 08:10:18;;;;;;;;;;;12.40;97.50;;;;;;5074052;28;20003;-75
2022/05/04 08:12:44;;;;;;;;;;;12.40;97.00;;;;;;5075685;28;20750;-78
2022/05/04 08:15:10;;;;;;;;;;;12.30;96.40;;;;;;5075483;28;19960;-78
2022/05/04 08:17:35;;;;;;;;;;;12.40;96.90;;;;;;5074645;28;19927;-76
2022/05/04 08:20:01;;;;;;;;;;;12.50;96.50;;;;;;5073436;28;19920;-75
2022/05/04 08:22:26;;;;;;;;;;;12.60;96.60;;;;;;5075152;28;19920;-76
2022/05/04 08:24:52;;;;;;;;;;;12.90;96.50;;;;;;5075203;28;19920;-74
2022/05/04 08:27:18;;;;;;;;;;;12.90;96.10;;;;;;5074139;28;20809;-77
2022/05/04 08:29:44;;;;;;;;;;;13.00;95.20;;;;;;5072324;28;19920;-77
2022/05/04 08:32:10;;;;;;;;;;;13.10;95.30;;;;;;5070975;28;19922;-77
2022/05/04 08:34:35;;;;;;;;;;;13.40;96.50;;;;;;5070096;28;19935;-77
2022/05/04 08:37:01;;;;;;;;;;;13.80;94.90;;;;;;5071394;28;19920;-77
2022/05/04 08:39:26;;;;;;;;;;;14.10;94.40;;;;;;5073161;28;19959;-77
2022/05/04 08:41:53;;;;;;;;;;;14.20;93.70;;;;;;5073882;28;19974;-77
2022/05/04 08:44:18;;;;;;;;;;;14.60;94.50;;;;;;5067224;28;19925;-78
2022/05/04 08:46:44;;;;;;;;;;;15.20;94.70;;;;;;5071870;28;20371;-78
2022/05/04 08:49:12;;;;;;;;;;;16.00;93.30;;;;;;5072035;28;19955;-77
2022/05/04 08:51:39;;;;;;;;;;;16.10;92.30;;;;;;5070144;28;20363;-77
2022/05/04 08:54:05;;;;;;;;;;;15.70;92.30;;;;;;5074298;28;19924;-77
2022/05/04 08:56:31;;;;;;;;;;;15.70;90.50;;;;;;5073597;28;19920;-77
2022/05/04 08:58:57;;;;;;;;;;;15.50;91.20;;;;;;5073129;28;19960;-77
2022/05/04 09:01:24;;;;;;;;;;;15.30;92.30;;;;;;5073924;28;19968;-76
2022/05/04 09:03:49;;;;;;;;;;;15.30;90.80;;;;;;5072983;28;19920;-75
2022/05/04 09:06:28;;;;;;;;;;;14.80;91.90;;;;;;5074586;28;19921;-75
2022/05/04 09:08:58;;;;;;;;;;;14.60;92.40;;;;;;5066097;28;20334;-74
2022/05/04 09:11:24;;;;;;;;;;;14.50;91.50;;;;;;5059419;28;19924;-74
2022/05/04 09:13:52;;;;;;;;;;;14.70;91.60;;;;;;5065367;28;19920;-75
2022/05/04 09:16:24;;;;;;;;;;;14.90;92.10;;;;;;5071461;28;19920;-75
2022/05/04 09:18:49;;;;;;;;;;;15.50;91.70;;;;;;5066060;28;20372;-75
2022/05/04 09:21:21;;;;;;;;;;;16.80;90.90;;;;;;5070514;28;19928;-75
2022/05/04 09:23:48;;;;;;;;;;;17.80;90.00;;;;;;5069583;28;19920;-74
2022/05/04 09:26:14;;;;;;;;;;;18.80;87.20;;;;;;5071798;28;19920;-74
2022/05/04 09:28:39;;;;;;;;;;;18.80;84.20;;;;;;5074489;28;19980;-75
2022/05/04 09:31:06;;;;;;;;;;;18.40;85.30;;;;;;5070153;28;20367;-74
2022/05/04 09:33:34;;;;;;;;;;;17.70;85.80;;;;;;5073290;28;19920;-75
2022/05/04 09:36:00;;;;;;;;;;;17.10;84.60;;;;;;5074147;28;19921;-75
2022/05/04 09:46:45;;;;;;;;;;;16.00;86.50;;;;;;5071953;28;19963;-76
2022/05/04 09:49:15;;;;;;;;;;;16.10;88.70;;;;;;5073221;28;20299;-76
2022/05/04 09:51:48;;;;;;;;;;;16.30;88.30;;;;;;5072211;28;20015;-73
2022/05/04 09:54:27;;;;;;;;;;;16.20;86.30;;;;;;5072629;28;19970;-75
2022/05/04 09:56:54;;;;;;;;;;;16.70;86.40;;;;;;5072813;28;19965;-75
2022/05/04 09:59:21;;;;;;;;;;;17.10;86.10;;;;;;5071796;28;19988;-74
2022/05/04 10:01:47;;;;;;;;;;;18.40;88.00;;;;;;5070805;28;19921;-75
2022/05/04 10:04:13;;;;;;;;;;;19.60;84.90;;;;;;5073614;28;19965;-79
2022/05/04 10:06:39;;;;;;;;;;;20.50;79.70;;;;;;5072266;28;20011;-79
2022/05/04 10:09:05;;;;;;;;;;;21.30;79.20;;;;;;5072296;28;19924;-75
2022/05/04 10:11:32;;;;;;;;;;;21.40;77.60;;;;;;5072412;28;19920;-82
2022/05/04 10:14:01;;;;;;;;;;;21.80;73.70;;;;;;5070184;28;19927;-79
2022/05/04 10:16:27;;;;;;;;;;;21.80;70.00;;;;;;5071932;28;20344;-78
2022/05/04 10:18:54;;;;;;;;;;;21.90;71.30;;;;;;5072355;28;19916;-78
2022/05/04 10:21:20;;;;;;;;;;;21.60;71.90;;;;;;5073080;28;19943;-84
2022/05/04 10:23:53;;;;;;;;;;;22.10;70.60;;;;;;5071847;28;19935;-79
2022/05/04 10:26:30;;;;;;;;;;;21.50;71.30;;;;;;5071775;28;19973;-76
2022/05/04 10:31:50;;;;;;;;;;;19.70;74.20;;;;;;5071528;28;20011;-73
2022/05/04 10:34:16;;;;;;;;;;;19.80;74.60;;;;;;5072825;28;19927;-73
2022/05/04 10:36:45;;;;;;;;;;;20.70;74.20;;;;;;5072802;28;19943;-80
2022/05/04 10:39:18;;;;;;;;;;;21.00;75.30;;;;;;5070779;28;20360;-75
2022/05/04 10:41:43;;;;;;;;;;;21.50;69.80;;;;;;5071616;28;19920;-71
2022/05/04 10:44:09;;;;;;;;;;;21.70;70.70;;;;;;5072542;28;20322;-73
2022/05/04 10:46:37;;;;;;;;;;;21.50;69.70;;;;;;5078903;22;19928;-75
2022/05/04 10:49:04;;;;;;;;;;;20.50;71.40;;;;;;5031549;28;20308;-73
2022/05/04 10:51:30;;;;;;;;;;;20.10;70.50;;;;;;5029973;28;20027;-74
2022/05/04 10:54:07;;;;;;;;;;;19.30;70.70;;;;;;5028680;28;20372;-73
2022/05/04 10:56:46;;;;;;;;;;;19.50;74.20;;;;;;5029405;28;19924;-73
2022/05/04 10:59:12;;;;;;;;;;;20.20;76.40;;;;;;5027657;28;19921;-73
2022/05/04 11:01:39;;;;;;;;;;;20.60;72.60;;;;;;5031416;28;19921;-78
2022/05/04 11:04:16;;;;;;;;;;;20.70;71.80;;;;;;5029774;28;19990;-76
2022/05/04 11:06:49;;;;;;;;;;;21.00;71.90;;;;;;5031942;28;20015;-76
2022/05/04 11:09:16;;;;;;;;;;;21.20;71.60;;;;;;5031198;28;20345;-75
2022/05/04 11:11:43;;;;;;;;;;;21.40;68.30;;;;;;5030011;28;19960;-75
2022/05/04 11:14:10;;;;;;;;;;;21.10;71.50;;;;;;5026371;28;19948;-75
2022/05/04 11:16:36;;;;;;;;;;;21.50;73.40;;;;;;5031088;28;19971;-75
2022/05/04 11:19:03;;;;;;;;;;;21.00;70.30;;;;;;5030878;28;19940;-78
2022/05/04 11:21:28;;;;;;;;;;;21.60;73.00;;;;;;5028798;28;20333;-74
2022/05/04 11:23:56;;;;;;;;;;;22.40;68.60;;;;;;5023357;28;19979;-76
2022/05/04 11:26:26;;;;;;;;;;;21.80;69.70;;;;;;5029767;28;20019;-81
2022/05/04 11:28:52;;;;;;;;;;;21.90;68.30;;;;;;5032312;28;20369;-78
2022/05/04 11:31:18;;;;;;;;;;;21.70;67.70;;;;;;5029819;28;19929;-77
2022/05/04 11:33:44;;;;;;;;;;;21.30;68.10;;;;;;5034319;28;19983;-77
2022/05/04 11:36:10;;;;;;;;;;;21.10;69.70;;;;;;5033877;28;20023;-75
2022/05/04 11:38:36;;;;;;;;;;;21.10;66.80;;;;;;5035060;28;19971;-75
2022/05/04 11:41:02;;;;;;;;;;;20.60;67.30;;;;;;5033055;28;20403;-73
2022/05/04 11:43:28;;;;;;;;;;;21.30;71.20;;;;;;5034327;28;20349;-77
2022/05/04 11:45:54;;;;;;;;;;;21.70;68.60;;;;;;5031434;28;19925;-75
2022/05/04 11:48:19;;;;;;;;;;;21.20;67.40;;;;;;5031773;28;19925;-74
2022/05/04 11:50:45;;;;;;;;;;;21.00;68.80;;;;;;5033644;28;19932;-75
2022/05/04 11:53:12;;;;;;;;;;;21.40;70.10;;;;;;5034877;28;19921;-72
2022/05/04 11:55:37;;;;;;;;;;;22.10;66.80;;;;;;5030403;28;19921;-79
2022/05/04 11:58:10;;;;;;;;;;;21.40;69.10;;;;;;5034979;28;19920;-77
2022/05/04 12:00:36;;;;;;;;;;;21.60;68.20;;;;;;5028570;28;20250;-78
2022/05/04 12:03:07;;;;;;;;;;;22.10;68.90;;;;;;5031907;28;19920;-80
2022/05/04 12:05:33;;;;;;;;;;;22.00;67.20;;;;;;5033362;28;19921;-84
2022/05/04 12:07:59;;;;;;;;;;;22.20;66.20;;;;;;5034123;28;20003;-73
2022/05/04 12:10:25;;;;;;;;;;;21.70;68.20;;;;;;5033621;28;20035;-69
2022/05/04 12:12:52;;;;;;;;;;;21.80;67.60;;;;;;5033769;28;19932;-75
2022/05/04 12:15:17;;;;;;;;;;;21.90;67.00;;;;;;5031480;28;19924;-79
2022/05/04 12:17:44;;;;;;;;;;;22.10;65.30;;;;;;5033291;28;19928;-77
2022/05/04 12:20:10;;;;;;;;;;;22.00;69.30;;;;;;5033701;28;19921;-77
2022/05/04 12:22:36;;;;;;;;;;;22.30;69.30;;;;;;5034102;28;20419;-77
2022/05/04 12:25:04;;;;;;;;;;;22.50;65.80;;;;;;5034064;28;19921;-74
2022/05/04 12:27:34;;;;;;;;;;;22.60;66.40;;;;;;5032386;28;19921;-78
2022/05/04 12:33:20;;;;;;;;;;;22.20;65.10;;;;;;5030595;28;19932;-77
2022/05/04 12:35:43;;;;;;;;;;;22.10;64.70;;;;;;5031481;28;19921;-77
2022/05/04 12:38:10;;;;;;;;;;;21.20;64.20;;;;;;5033272;28;19968;-78
2022/05/04 12:40:41;;;;;;;;;;;21.20;69.10;;;;;;5031229;28;19921;-77
2022/05/04 12:43:07;;;;;;;;;;;21.60;67.00;;;;;;5031468;28;19924;-75
2022/05/04 12:45:34;;;;;;;;;;;21.60;70.00;;;;;;5033478;28;19921;-76
2022/05/04 12:48:00;;;;;;;;;;;22.40;65.90;;;;;;5032912;28;19976;-76
2022/05/04 12:50:31;;;;;;;;;;;21.40;67.70;;;;;;5030220;28;19921;-76
2022/05/04 12:52:57;;;;;;;;;;;21.50;68.70;;;;;;5033458;28;20010;-76
2022/05/04 12:58:08;;;;;;;;;;;21.10;68.50;;;;;;5034228;28;19930;-76
2022/05/04 13:00:34;;;;;;;;;;;20.30;67.80;;;;;;5031427;28;19928;-76
2022/05/04 13:02:59;;;;;;;;;;;19.70;68.40;;;;;;5031016;28;19924;-76
2022/05/04 13:05:25;;;;;;;;;;;19.90;68.60;;;;;;5032950;28;20421;-77
2022/05/04 13:07:50;;;;;;;;;;;20.00;70.10;;;;;;5034311;28;19921;-77
2022/05/04 13:10:16;;;;;;;;;;;20.00;69.80;;;;;;5033912;28;19976;-76
2022/05/04 13:12:41;;;;;;;;;;;19.90;70.60;;;;;;5032971;28;19968;-76
2022/05/04 13:15:07;;;;;;;;;;;20.00;71.30;;;;;;5032512;28;19921;-77
2022/05/04 13:17:33;;;;;;;;;;;20.30;72.00;;;;;;5034706;28;19927;-77
2022/05/04 13:19:58;;;;;;;;;;;20.70;70.40;;;;;;5033957;28;19975;-77
2022/05/04 13:22:24;;;;;;;;;;;20.10;69.00;;;;;;5034267;28;20295;-77
2022/05/04 13:24:50;;;;;;;;;;;20.20;70.60;;;;;;5032771;28;19925;-77
2022/05/04 13:27:15;;;;;;;;;;;19.90;70.80;;;;;;5031565;28;19929;-77
2022/05/04 13:29:41;;;;;;;;;;;19.90;70.00;;;;;;5031722;28;19925;-79
2022/05/04 13:32:08;;;;;;;;;;;20.30;71.40;;;;;;5031163;28;19932;-75
2022/05/04 13:34:33;;;;;;;;;;;20.20;70.40;;;;;;5031746;28;19921;-80
2022/05/04 13:36:59;;;;;;;;;;;21.00;69.00;;;;;;5031615;28;19921;-74
2022/05/04 13:39:24;;;;;;;;;;;21.00;67.80;;;;;;5033235;28;19921;-75
2022/05/04 13:41:51;;;;;;;;;;;20.20;69.60;;;;;;5032555;28;19944;-74
2022/05/04 13:44:17;;;;;;;;;;;20.40;67.10;;;;;;5031353;28;19921;-71
2022/05/04 13:46:42;;;;;;;;;;;20.30;69.30;;;;;;5032742;28;19924;-73
2022/05/04 13:49:08;;;;;;;;;;;19.80;68.80;;;;;;5032931;28;19921;-69
2022/05/04 13:54:17;;;;;;;;;;;20.20;71.50;;;;;;5029681;28;19921;-73
2022/05/04 13:56:43;;;;;;;;;;;20.00;68.90;;;;;;5028301;28;20051;-73
2022/05/04 13:59:08;;;;;;;;;;;19.40;70.30;;;;;;5030069;28;19932;-72
2022/05/04 14:01:34;;;;;;;;;;;19.40;72.40;;;;;;5025509;28;20014;-80
2022/05/04 14:04:00;;;;;;;;;;;19.70;71.30;;;;;;5033004;28;19927;-77
2022/05/04 14:06:25;;;;;;;;;;;19.90;72.50;;;;;;5033515;28;19959;-72
2022/05/04 14:08:51;;;;;;;;;;;20.10;70.50;;;;;;5030508;28;20280;-70
2022/05/04 14:11:17;;;;;;;;;;;20.30;72.70;;;;;;5032957;28;19920;-71
2022/05/04 14:13:42;;;;;;;;;;;20.50;68.20;;;;;;5031239;28;20376;-71
2022/05/04 14:16:10;;;;;;;;;;;20.30;69.80;;;;;;5031584;28;19921;-72
2022/05/04 14:18:36;;;;;;;;;;;20.00;70.80;;;;;;5032234;28;19968;-73
2022/05/04 14:21:08;;;;;;;;;;;19.90;69.80;;;;;;5029851;28;19959;-73
2022/05/04 14:23:39;;;;;;;;;;;19.70;70.70;;;;;;5031949;28;19921;-72
2022/05/04 14:26:04;;;;;;;;;;;20.00;69.90;;;;;;5031883;28;19925;-73
2022/05/04 14:28:30;;;;;;;;;;;19.90;72.40;;;;;;5032338;28;20283;-73
2022/05/04 14:31:02;;;;;;;;;;;19.60;71.40;;;;;;5031951;28;19925;-73
2022/05/04 14:33:29;;;;;;;;;;;19.60;73.10;;;;;;5026750;28;20361;-73
2022/05/04 14:35:54;;;;;;;;;;;19.50;71.90;;;;;;5029222;28;20455;-73
2022/05/04 14:38:20;;;;;;;;;;;19.30;72.40;;;;;;5030439;28;19924;-73
2022/05/04 14:40:45;;;;;;;;;;;19.00;73.60;;;;;;5032766;28;19931;-74
2022/05/04 14:43:11;;;;;;;;;;;19.20;71.90;;;;;;5030316;28;20376;-73
2022/05/04 14:45:37;;;;;;;;;;;19.30;73.10;;;;;;5033074;28;19928;-73
2022/05/04 14:48:02;;;;;;;;;;;19.00;72.60;;;;;;5031103;28;19987;-73
2022/05/04 14:50:28;;;;;;;;;;;19.10;74.60;;;;;;5031273;28;19987;-73
2022/05/04 14:52:53;;;;;;;;;;;18.90;72.60;;;;;;5029479;28;19929;-73
2022/05/04 14:55:20;;;;;;;;;;;18.70;73.40;;;;;;5031230;28;19921;-72
2022/05/04 14:57:45;;;;;;;;;;;18.10;73.10;;;;;;5031285;28;19921;-72
2022/05/04 15:00:11;;;;;;;;;;;18.00;73.80;;;;;;5032302;28;19925;-73
2022/05/04 15:05:01;;;;;;;;;;;17.80;74.90;;;;;;5031611;28;19921;-72
2022/05/04 15:05:22;;;;;;;;;;;17.40;75.30;;;;;;5015861;28;20375;-72